Portada
METAR-TAF:

METAR-TAF

Aeroports :

Agen, França

latitud: 44-11N, longitud: 000-36E, altitud: 61 m

Observació

L'informe es va fer fa 37 minuts, a les 23:30 UTC
Vent 9 kt del Nord/Nord-Est, variant entre Nord i Est/Nord-Est
Temperatura 6°C
Humitat 65%
Pressió 1020 hPa
Visibilitat 10 km o més
Cel cobert a una alçada de 3100 ft
pluja

METAR: LFBA 292330Z AUTO 02009KT 350V070 9999 -RA OVC031 06/00 Q1020

Hora: 02:07 (00:07 UTC)


TAF: manca

Observacions i pronòstics meteorològics de més de 4000 aeroports (METAR i TAF).

Les estacions disponibles són els punts grocs i vermells al mapa.

Posi el ratolí al punt desitjat per veure el nom de l'estació.

Feu clic per veure les observacions i els pronòstics meteorològics.

Per canviar el mapa: feu clic els botons verds amb una creu de color negre per apropar; al botó verd amb un guió per allunyar la imatge; o en les fletxes verdes per a mapes adjacents.


METAR-TAF: